sensor_id;sensor_type;location;lat;lon;timestamp;pressure;altitude;pressure_sealevel;temperature;humidity
11621;BME280;5866;49.094;11.900;2024-01-25T00:01:26;97083.03;;;7.20;100.00
11621;BME280;5866;49.094;11.900;2024-01-25T00:03:54;97088.66;;;7.27;100.00
11621;BME280;5866;49.094;11.900;2024-01-25T00:06:21;97073.28;;;7.32;100.00
11621;BME280;5866;49.094;11.900;2024-01-25T00:08:49;97093.31;;;7.23;100.00
11621;BME280;5866;49.094;11.900;2024-01-25T00:11:17;97091.53;;;7.35;100.00
11621;BME280;5866;49.094;11.900;2024-01-25T00:13:45;97081.81;;;7.24;100.00
11621;BME280;5866;49.094;11.900;2024-01-25T00:16:13;97076.31;;;7.16;100.00
11621;BME280;5866;49.094;11.900;2024-01-25T00:18:41;97077.03;;;7.18;100.00
11621;BME280;5866;49.094;11.900;2024-01-25T00:21:09;97081.19;;;7.20;100.00
11621;BME280;5866;49.094;11.900;2024-01-25T00:23:36;97070.41;;;7.23;100.00
11621;BME280;5866;49.094;11.900;2024-01-25T00:26:04;97086.72;;;7.17;100.00
11621;BME280;5866;49.094;11.900;2024-01-25T00:28:32;97083.25;;;7.28;100.00
11621;BME280;5866;49.094;11.900;2024-01-25T00:31:01;97087.22;;;7.22;100.00
11621;BME280;5866;49.094;11.900;2024-01-25T00:33:29;97091.75;;;7.20;100.00
11621;BME280;5866;49.094;11.900;2024-01-25T00:35:57;97100.41;;;7.22;100.00
11621;BME280;5866;49.094;11.900;2024-01-25T00:38:25;97100.66;;;7.19;100.00
11621;BME280;5866;49.094;11.900;2024-01-25T00:40:54;97098.13;;;7.18;100.00
11621;BME280;5866;49.094;11.900;2024-01-25T00:43:22;97091.16;;;7.17;100.00
11621;BME280;5866;49.094;11.900;2024-01-25T00:45:51;97092.00;;;7.17;100.00
11621;BME280;5866;49.094;11.900;2024-01-25T00:48:21;97100.41;;;7.45;100.00
11621;BME280;5866;49.094;11.900;2024-01-25T00:50:49;97097.78;;;7.11;100.00
11621;BME280;5866;49.094;11.900;2024-01-25T00:53:17;97095.63;;;7.05;100.00
11621;BME280;5866;49.094;11.900;2024-01-25T00:55:45;97095.13;;;7.00;100.00
11621;BME280;5866;49.094;11.900;2024-01-25T00:58:13;97094.53;;;6.97;100.00
11621;BME280;5866;49.094;11.900;2024-01-25T01:00:41;97089.84;;;7.00;100.00
11621;BME280;5866;49.094;11.900;2024-01-25T01:03:09;97100.53;;;7.10;100.00
11621;BME280;5866;49.094;11.900;2024-01-25T01:05:40;97092.13;;;7.05;100.00
11621;BME280;5866;49.094;11.900;2024-01-25T01:08:09;97098.97;;;7.07;100.00
11621;BME280;5866;49.094;11.900;2024-01-25T01:10:37;97096.81;;;7.01;100.00
11621;BME280;5866;49.094;11.900;2024-01-25T01:13:05;97085.06;;;7.05;100.00
11621;BME280;5866;49.094;11.900;2024-01-25T01:15:32;97088.50;;;7.06;100.00
11621;BME280;5866;49.094;11.900;2024-01-25T01:18:00;97084.34;;;7.03;100.00
11621;BME280;5866;49.094;11.900;2024-01-25T01:20:28;97083.50;;;7.03;100.00
11621;BME280;5866;49.094;11.900;2024-01-25T01:22:57;97077.63;;;6.99;100.00
11621;BME280;5866;49.094;11.900;2024-01-25T01:25:24;97081.94;;;7.00;100.00
11621;BME280;5866;49.094;11.900;2024-01-25T01:27:52;97077.72;;;6.98;100.00
11621;BME280;5866;49.094;11.900;2024-01-25T01:30:20;97077.84;;;6.96;100.00
11621;BME280;5866;49.094;11.900;2024-01-25T01:32:48;97077.38;;;7.02;100.00
11621;BME280;5866;49.094;11.900;2024-01-25T01:35:16;97076.53;;;7.02;100.00
11621;BME280;5866;49.094;11.900;2024-01-25T01:37:44;97081.78;;;7.46;100.00
11621;BME280;5866;49.094;11.900;2024-01-25T01:40:13;97079.91;;;7.26;100.00
11621;BME280;5866;49.094;11.900;2024-01-25T01:42:41;97068.25;;;7.06;100.00
11621;BME280;5866;49.094;11.900;2024-01-25T01:45:11;97057.94;;;7.14;100.00
11621;BME280;5866;49.094;11.900;2024-01-25T01:47:39;97060.84;;;7.22;100.00
11621;BME280;5866;49.094;11.900;2024-01-25T01:50:08;97057.81;;;7.38;100.00
11621;BME280;5866;49.094;11.900;2024-01-25T01:52:37;97073.28;;;7.32;100.00
11621;BME280;5866;49.094;11.900;2024-01-25T01:55:06;97066.13;;;7.22;100.00
11621;BME280;5866;49.094;11.900;2024-01-25T01:57:36;97075.59;;;7.14;100.00
11621;BME280;5866;49.094;11.900;2024-01-25T02:00:06;97067.78;;;7.12;100.00
11621;BME280;5866;49.094;11.900;2024-01-25T02:02:35;97079.03;;;7.14;100.00
11621;BME280;5866;49.094;11.900;2024-01-25T02:05:03;97075.44;;;7.04;100.00
11621;BME280;5866;49.094;11.900;2024-01-25T02:07:31;97071.50;;;6.99;100.00
11621;BME280;5866;49.094;11.900;2024-01-25T02:09:59;97063.34;;;7.02;100.00
11621;BME280;5866;49.094;11.900;2024-01-25T02:12:27;97059.63;;;6.93;100.00
11621;BME280;5866;49.094;11.900;2024-01-25T02:14:56;97057.47;;;6.87;100.00
11621;BME280;5866;49.094;11.900;2024-01-25T02:17:24;97054.09;;;6.85;100.00
11621;BME280;5866;49.094;11.900;2024-01-25T02:19:52;97053.88;;;6.88;100.00
11621;BME280;5866;49.094;11.900;2024-01-25T02:22:21;97062.28;;;6.82;100.00
11621;BME280;5866;49.094;11.900;2024-01-25T02:24:49;97058.31;;;6.88;100.00
11621;BME280;5866;49.094;11.900;2024-01-25T02:27:17;97053.88;;;6.88;100.00
11621;BME280;5866;49.094;11.900;2024-01-25T02:29:44;97051.72;;;6.82;100.00
11621;BME280;5866;49.094;11.900;2024-01-25T02:32:12;97052.19;;;6.87;100.00
11621;BME280;5866;49.094;11.900;2024-01-25T02:34:39;97039.00;;;6.98;100.00
11621;BME280;5866;49.094;11.900;2024-01-25T02:37:07;97053.50;;;6.82;100.00
11621;BME280;5866;49.094;11.900;2024-01-25T02:39:39;97052.44;;;6.84;100.00
11621;BME280;5866;49.094;11.900;2024-01-25T02:42:06;97053.88;;;6.88;100.00
11621;BME280;5866;49.094;11.900;2024-01-25T02:44:34;97072.09;;;6.80;100.00
11621;BME280;5866;49.094;11.900;2024-01-25T02:47:01;97068.38;;;6.83;100.00
11621;BME280;5866;49.094;11.900;2024-01-25T02:49:29;97073.53;;;6.84;100.00
11621;BME280;5866;49.094;11.900;2024-01-25T02:51:57;97063.72;;;6.97;100.00
11621;BME280;5866;49.094;11.900;2024-01-25T02:54:25;97066.81;;;6.91;100.00
11621;BME280;5866;49.094;11.900;2024-01-25T02:56:54;97070.44;;;7.01;100.00
11621;BME280;5866;49.094;11.900;2024-01-25T02:59:21;97072.81;;;6.93;100.00
11621;BME280;5866;49.094;11.900;2024-01-25T03:01:49;97072.13;;;7.25;100.00
11621;BME280;5866;49.094;11.900;2024-01-25T03:04:17;97061.19;;;7.07;100.00
11621;BME280;5866;49.094;11.900;2024-01-25T03:06:44;97062.50;;;6.90;100.00
11621;BME280;5866;49.094;11.900;2024-01-25T03:09:12;97059.16;;;6.88;100.00
11621;BME280;5866;49.094;11.900;2024-01-25T03:11:40;97064.91;;;6.82;100.00
11621;BME280;5866;49.094;11.900;2024-01-25T03:14:09;97072.56;;;6.85;100.00
11621;BME280;5866;49.094;11.900;2024-01-25T03:16:36;97080.25;;;6.88;100.00
11621;BME280;5866;49.094;11.900;2024-01-25T03:19:04;97089.09;;;6.87;100.00
11621;BME280;5866;49.094;11.900;2024-01-25T03:21:32;97086.59;;;7.08;100.00
11621;BME280;5866;49.094;11.900;2024-01-25T03:23:59;97089.50;;;7.05;100.00
11621;BME280;5866;49.094;11.900;2024-01-25T03:26:27;97095.34;;;7.08;100.00
11621;BME280;5866;49.094;11.900;2024-01-25T03:28:55;97092.00;;;7.06;100.00
11621;BME280;5866;49.094;11.900;2024-01-25T03:31:24;97099.31;;;7.03;100.00
11621;BME280;5866;49.094;11.900;2024-01-25T03:33:51;97091.66;;;6.89;100.00
11621;BME280;5866;49.094;11.900;2024-01-25T03:36:19;97108.28;;;6.78;100.00
11621;BME280;5866;49.094;11.900;2024-01-25T03:38:47;97118.34;;;6.95;100.00
11621;BME280;5866;49.094;11.900;2024-01-25T03:41:14;97111.19;;;6.97;100.00
11621;BME280;5866;49.094;11.900;2024-01-25T03:43:42;97112.59;;;6.79;100.00
11621;BME280;5866;49.094;11.900;2024-01-25T03:46:11;97117.88;;;6.79;100.00
11621;BME280;5866;49.094;11.900;2024-01-25T03:48:40;97115.53;;;7.09;100.00
11621;BME280;5866;49.094;11.900;2024-01-25T03:51:08;97121.03;;;7.06;100.00
11621;BME280;5866;49.094;11.900;2024-01-25T03:53:36;97125.56;;;6.82;100.00
11621;BME280;5866;49.094;11.900;2024-01-25T03:56:04;97124.16;;;7.11;100.00
11621;BME280;5866;49.094;11.900;2024-01-25T03:58:37;97125.69;;;7.03;100.00
11621;BME280;5866;49.094;11.900;2024-01-25T04:01:05;97121.38;;;7.13;100.00
11621;BME280;5866;49.094;11.900;2024-01-25T04:03:33;97129.53;;;7.21;100.00
11621;BME280;5866;49.094;11.900;2024-01-25T04:06:03;97117.69;;;7.27;100.00
11621;BME280;5866;49.094;11.900;2024-01-25T04:08:30;97122.09;;;7.04;100.00
11621;BME280;5866;49.094;11.900;2024-01-25T04:10:58;97118.63;;;7.14;100.00
11621;BME280;5866;49.094;11.900;2024-01-25T04:13:26;97113.34;;;7.14;100.00
11621;BME280;5866;49.094;11.900;2024-01-25T04:15:53;97118.25;;;7.08;100.00
11621;BME280;5866;49.094;11.900;2024-01-25T04:18:21;97123.28;;;7.00;100.00
11621;BME280;5866;49.094;11.900;2024-01-25T04:20:49;97134.09;;;6.97;100.00
11621;BME280;5866;49.094;11.900;2024-01-25T04:23:18;97128.91;;;6.95;100.00
11621;BME280;5866;49.094;11.900;2024-01-25T04:25:46;97124.63;;;7.16;100.00
11621;BME280;5866;49.094;11.900;2024-01-25T04:28:15;97126.56;;;7.03;100.00
11621;BME280;5866;49.094;11.900;2024-01-25T04:30:43;97128.69;;;6.98;100.00
11621;BME280;5866;49.094;11.900;2024-01-25T04:33:10;97126.28;;;6.84;100.00
11621;BME280;5866;49.094;11.900;2024-01-25T04:35:38;97125.31;;;6.74;100.00
11621;BME280;5866;49.094;11.900;2024-01-25T04:38:06;97126.41;;;6.94;100.00
11621;BME280;5866;49.094;11.900;2024-01-25T04:40:35;97135.88;;;6.96;100.00
11621;BME280;5866;49.094;11.900;2024-01-25T04:43:03;97141.94;;;6.75;100.00
11621;BME280;5866;49.094;11.900;2024-01-25T04:45:30;97136.56;;;6.87;100.00
11621;BME280;5866;49.094;11.900;2024-01-25T04:47:58;97144.38;;;6.89;100.00
11621;BME280;5866;49.094;11.900;2024-01-25T04:50:26;97141.25;;;6.84;100.00
11621;BME280;5866;49.094;11.900;2024-01-25T04:52:54;97136.09;;;6.82;100.00
11621;BME280;5866;49.094;11.900;2024-01-25T04:55:22;97133.22;;;6.74;100.00
11621;BME280;5866;49.094;11.900;2024-01-25T04:57:51;97135.94;;;6.73;100.00
11621;BME280;5866;49.094;11.900;2024-01-25T05:00:21;97145.28;;;6.77;100.00
11621;BME280;5866;49.094;11.900;2024-01-25T05:02:49;97143.03;;;6.83;100.00
11621;BME280;5866;49.094;11.900;2024-01-25T05:05:16;97149.75;;;6.76;100.00
11621;BME280;5866;49.094;11.900;2024-01-25T05:07:44;97152.84;;;6.70;100.00
11621;BME280;5866;49.094;11.900;2024-01-25T05:10:12;97161.13;;;6.77;100.00
11621;BME280;5866;49.094;11.900;2024-01-25T05:12:40;97165.56;;;6.87;100.00
11621;BME280;5866;49.094;11.900;2024-01-25T05:15:09;97160.69;;;6.83;100.00
11621;BME280;5866;49.094;11.900;2024-01-25T05:17:37;97173.22;;;6.79;100.00
11621;BME280;5866;49.094;11.900;2024-01-25T05:20:06;97168.69;;;6.81;100.00
11621;BME280;5866;49.094;11.900;2024-01-25T05:22:34;97163.88;;;6.75;100.00
11621;BME280;5866;49.094;11.900;2024-01-25T05:25:07;97171.53;;;6.67;100.00
11621;BME280;5866;49.094;11.900;2024-01-25T05:27:35;97166.84;;;6.71;100.00
11621;BME280;5866;49.094;11.900;2024-01-25T05:30:04;97165.28;;;6.68;100.00
11621;BME280;5866;49.094;11.900;2024-01-25T05:32:33;97160.47;;;6.62;100.00
11621;BME280;5866;49.094;11.900;2024-01-25T05:35:01;97167.41;;;6.52;100.00
11621;BME280;5866;49.094;11.900;2024-01-25T05:37:29;97176.28;;;6.51;100.00
11621;BME280;5866;49.094;11.900;2024-01-25T05:39:56;97178.63;;;6.43;100.00
11621;BME280;5866;49.094;11.900;2024-01-25T05:42:24;97175.56;;;6.49;100.00
11621;BME280;5866;49.094;11.900;2024-01-25T05:44:52;97176.28;;;6.51;100.00
11621;BME280;5866;49.094;11.900;2024-01-25T05:47:19;97188.03;;;6.58;100.00
11621;BME280;5866;49.094;11.900;2024-01-25T05:49:48;97191.25;;;6.51;100.00
11621;BME280;5866;49.094;11.900;2024-01-25T05:52:16;97191.63;;;6.57;100.00
11621;BME280;5866;49.094;11.900;2024-01-25T05:54:44;97193.69;;;6.65;100.00
11621;BME280;5866;49.094;11.900;2024-01-25T05:57:12;97204.81;;;6.57;100.00
11621;BME280;5866;49.094;11.900;2024-01-25T05:59:40;97200.91;;;6.74;100.00
11621;BME280;5866;49.094;11.900;2024-01-25T06:02:07;97201.94;;;6.60;100.00
11621;BME280;5866;49.094;11.900;2024-01-25T06:04:35;97191.94;;;6.76;100.00
11621;BME280;5866;49.094;11.900;2024-01-25T06:07:05;97194.75;;;6.62;100.00
11621;BME280;5866;49.094;11.900;2024-01-25T06:09:33;97193.53;;;6.55;100.00
11621;BME280;5866;49.094;11.900;2024-01-25T06:12:00;97199.19;;;6.62;100.00
11621;BME280;5866;49.094;11.900;2024-01-25T06:14:30;97205.28;;;6.62;100.00
11621;BME280;5866;49.094;11.900;2024-01-25T06:16:58;97196.06;;;6.57;100.00
11621;BME280;5866;49.094;11.900;2024-01-25T06:19:25;97192.44;;;6.47;100.00
11621;BME280;5866;49.094;11.900;2024-01-25T06:21:53;97189.53;;;6.38;100.00
11621;BME280;5866;49.094;11.900;2024-01-25T06:24:22;97180.59;;;6.28;100.00
11621;BME280;5866;49.094;11.900;2024-01-25T06:26:50;97177.41;;;6.12;100.00
11621;BME280;5866;49.094;11.900;2024-01-25T06:29:17;97172.69;;;6.05;100.00
11621;BME280;5866;49.094;11.900;2024-01-25T06:31:45;97173.50;;;6.05;100.00
11621;BME280;5866;49.094;11.900;2024-01-25T06:34:13;97189.84;;;6.10;100.00
11621;BME280;5866;49.094;11.900;2024-01-25T06:36:41;97194.31;;;6.21;100.00
11621;BME280;5866;49.094;11.900;2024-01-25T06:39:08;97194.16;;;6.11;100.00
11621;BME280;5866;49.094;11.900;2024-01-25T06:41:38;97206.69;;;6.08;100.00
11621;BME280;5866;49.094;11.900;2024-01-25T06:44:05;97211.97;;;6.08;100.00
11621;BME280;5866;49.094;11.900;2024-01-25T06:46:33;97218.00;;;5.97;100.00
11621;BME280;5866;49.094;11.900;2024-01-25T06:49:00;97207.06;;;5.91;100.00
11621;BME280;5866;49.094;11.900;2024-01-25T06:51:29;97205.06;;;5.94;100.00
11621;BME280;5866;49.094;11.900;2024-01-25T06:53:57;97194.34;;;5.85;100.00
11621;BME280;5866;49.094;11.900;2024-01-25T06:56:24;97202.88;;;5.88;100.00
11621;BME280;5866;49.094;11.900;2024-01-25T06:58:53;97203.94;;;5.86;100.00
11621;BME280;5866;49.094;11.900;2024-01-25T07:01:21;97201.06;;;5.89;100.00
11621;BME280;5866;49.094;11.900;2024-01-25T07:03:50;97199.94;;;5.93;100.00
11621;BME280;5866;49.094;11.900;2024-01-25T07:06:19;97201.19;;;5.87;100.00
11621;BME280;5866;49.094;11.900;2024-01-25T07:08:47;97201.78;;;5.91;100.00
11621;BME280;5866;49.094;11.900;2024-01-25T07:11:15;97194.53;;;5.82;100.00
11621;BME280;5866;49.094;11.900;2024-01-25T07:13:43;97189.00;;;5.74;100.00
11621;BME280;5866;49.094;11.900;2024-01-25T07:16:12;97207.63;;;5.71;100.00
11621;BME280;5866;49.094;11.900;2024-01-25T07:18:40;97222.25;;;5.75;100.00
11621;BME280;5866;49.094;11.900;2024-01-25T07:21:07;97228.25;;;5.77;100.00
11621;BME280;5866;49.094;11.900;2024-01-25T07:23:35;97233.63;;;5.88;100.00
11621;BME280;5866;49.094;11.900;2024-01-25T07:26:03;97234.16;;;5.93;100.00
11621;BME280;5866;49.094;11.900;2024-01-25T07:28:31;97233.59;;;6.00;100.00
11621;BME280;5866;49.094;11.900;2024-01-25T07:30:58;97234.88;;;5.95;100.00
11621;BME280;5866;49.094;11.900;2024-01-25T07:33:27;97233.34;;;6.03;100.00
11621;BME280;5866;49.094;11.900;2024-01-25T07:35:55;97235.63;;;5.97;100.00
11621;BME280;5866;49.094;11.900;2024-01-25T07:38:24;97241.63;;;5.99;100.00
11621;BME280;5866;49.094;11.900;2024-01-25T07:40:52;97254.47;;;5.91;100.00
11621;BME280;5866;49.094;11.900;2024-01-25T07:43:19;97255.50;;;6.01;100.00
11621;BME280;5866;49.094;11.900;2024-01-25T07:45:47;97256.16;;;6.52;100.00
11621;BME280;5866;49.094;11.900;2024-01-25T07:48:16;97267.44;;;6.30;100.00
11621;BME280;5866;49.094;11.900;2024-01-25T07:50:45;97268.50;;;6.75;100.00
11621;BME280;5866;49.094;11.900;2024-01-25T07:53:13;97262.81;;;6.68;100.00
11621;BME280;5866;49.094;11.900;2024-01-25T07:55:42;97262.16;;;6.30;100.00
11621;BME280;5866;49.094;11.900;2024-01-25T07:58:10;97264.63;;;6.44;100.00
11621;BME280;5866;49.094;11.900;2024-01-25T08:00:38;97273.06;;;6.49;100.00
11621;BME280;5866;49.094;11.900;2024-01-25T08:03:05;97275.06;;;6.69;100.00
11621;BME280;5866;49.094;11.900;2024-01-25T08:05:33;97286.97;;;6.51;100.00
11621;BME280;5866;49.094;11.900;2024-01-25T08:08:14;97287.41;;;6.45;100.00
11621;BME280;5866;49.094;11.900;2024-01-25T08:10:42;97295.66;;;6.40;100.00
11621;BME280;5866;49.094;11.900;2024-01-25T08:13:12;97289.94;;;6.47;100.00
11621;BME280;5866;49.094;11.900;2024-01-25T08:15:40;97286.25;;;6.49;100.00
11621;BME280;5866;49.094;11.900;2024-01-25T08:18:08;97282.31;;;6.78;100.00
11621;BME280;5866;49.094;11.900;2024-01-25T08:20:36;97267.09;;;6.58;100.00
11621;BME280;5866;49.094;11.900;2024-01-25T08:23:04;97284.66;;;6.47;100.00
11621;BME280;5866;49.094;11.900;2024-01-25T08:25:36;97286.53;;;6.57;100.00
11621;BME280;5866;49.094;11.900;2024-01-25T08:28:04;97290.44;;;6.52;100.00
11621;BME280;5866;49.094;11.900;2024-01-25T08:30:32;97294.81;;;6.40;100.00
11621;BME280;5866;49.094;11.900;2024-01-25T08:33:00;97309.28;;;6.58;100.00
11621;BME280;5866;49.094;11.900;2024-01-25T08:35:27;97315.59;;;6.56;100.00
11621;BME280;5866;49.094;11.900;2024-01-25T08:37:57;97323.84;;;6.64;100.00
11621;BME280;5866;49.094;11.900;2024-01-25T08:40:24;97322.53;;;6.93;100.00
11621;BME280;5866;49.094;11.900;2024-01-25T08:42:56;97322.28;;;7.19;100.00
11621;BME280;5866;49.094;11.900;2024-01-25T08:45:24;97329.78;;;6.78;100.00
11621;BME280;5866;49.094;11.900;2024-01-25T08:47:52;97336.44;;;6.71;100.00
11621;BME280;5866;49.094;11.900;2024-01-25T08:50:19;97334.59;;;6.84;100.00
11621;BME280;5866;49.094;11.900;2024-01-25T08:52:50;97333.34;;;6.77;100.00
11621;BME280;5866;49.094;11.900;2024-01-25T08:55:17;97331.22;;;6.82;100.00
11621;BME280;5866;49.094;11.900;2024-01-25T08:57:45;97322.94;;;6.76;100.00
11621;BME280;5866;49.094;11.900;2024-01-25T09:00:14;97324.66;;;6.64;100.00
11621;BME280;5866;49.094;11.900;2024-01-25T09:02:44;97320.53;;;6.60;100.00
11621;BME280;5866;49.094;11.900;2024-01-25T09:05:12;97338.97;;;6.73;100.00
11621;BME280;5866;49.094;11.900;2024-01-25T09:07:40;97334.13;;;6.67;100.00
11621;BME280;5866;49.094;11.900;2024-01-25T09:10:08;97341.75;;;6.59;100.00
11621;BME280;5866;49.094;11.900;2024-01-25T09:12:37;97344.19;;;6.62;100.00
11621;BME280;5866;49.094;11.900;2024-01-25T09:15:05;97351.25;;;6.61;100.00
11621;BME280;5866;49.094;11.900;2024-01-25T09:17:36;97362.81;;;6.71;100.00
11621;BME280;5866;49.094;11.900;2024-01-25T09:20:05;97358.88;;;6.53;100.00
11621;BME280;5866;49.094;11.900;2024-01-25T09:22:33;97352.97;;;6.37;100.00
11621;BME280;5866;49.094;11.900;2024-01-25T09:25:01;97363.78;;;6.70;100.00
11621;BME280;5866;49.094;11.900;2024-01-25T09:27:31;97350.69;;;6.92;100.00
11621;BME280;5866;49.094;11.900;2024-01-25T09:29:59;97358.00;;;6.89;100.00
11621;BME280;5866;49.094;11.900;2024-01-25T09:32:27;97355.19;;;7.03;100.00
11621;BME280;5866;49.094;11.900;2024-01-25T09:34:56;97377.53;;;6.86;100.00
11621;BME280;5866;49.094;11.900;2024-01-25T09:37:24;97361.81;;;6.85;100.00
11621;BME280;5866;49.094;11.900;2024-01-25T09:39:51;97366.38;;;6.83;100.00
11621;BME280;5866;49.094;11.900;2024-01-25T09:42:19;97372.19;;;6.75;100.00
11621;BME280;5866;49.094;11.900;2024-01-25T09:44:47;97374.44;;;6.92;100.00
11621;BME280;5866;49.094;11.900;2024-01-25T09:47:15;97375.66;;;6.76;100.00
11621;BME280;5866;49.094;11.900;2024-01-25T09:49:46;97379.25;;;6.98;100.00
11621;BME280;5866;49.094;11.900;2024-01-25T09:52:16;97392.38;;;6.87;100.00
11621;BME280;5866;49.094;11.900;2024-01-25T09:54:44;97389.25;;;6.82;100.00
11621;BME280;5866;49.094;11.900;2024-01-25T09:57:14;97397.78;;;7.09;100.00
11621;BME280;5866;49.094;11.900;2024-01-25T09:59:43;97404.13;;;7.07;100.00
11621;BME280;5866;49.094;11.900;2024-01-25T10:02:11;97398.34;;;7.02;100.00
11621;BME280;5866;49.094;11.900;2024-01-25T10:04:39;97398.63;;;6.86;100.00
11621;BME280;5866;49.094;11.900;2024-01-25T10:07:07;97397.69;;;7.11;100.00
11621;BME280;5866;49.094;11.900;2024-01-25T10:09:40;97402.78;;;7.01;100.00
11621;BME280;5866;49.094;11.900;2024-01-25T10:12:08;97396.19;;;6.83;100.00
11621;BME280;5866;49.094;11.900;2024-01-25T10:14:44;97397.53;;;7.01;100.00
11621;BME280;5866;49.094;11.900;2024-01-25T10:17:12;97383.94;;;6.95;100.00
11621;BME280;5866;49.094;11.900;2024-01-25T10:19:42;97394.63;;;7.04;100.00
11621;BME280;5866;49.094;11.900;2024-01-25T10:22:12;97395.81;;;7.00;100.00
11621;BME280;5866;49.094;11.900;2024-01-25T10:24:43;97381.91;;;6.98;100.00
11621;BME280;5866;49.094;11.900;2024-01-25T10:27:11;97388.69;;;7.13;100.00
11621;BME280;5866;49.094;11.900;2024-01-25T10:29:39;97389.59;;;7.01;100.00
11621;BME280;5866;49.094;11.900;2024-01-25T10:32:08;97395.16;;;7.09;100.00
11621;BME280;5866;49.094;11.900;2024-01-25T10:34:36;97386.06;;;7.13;100.00
11621;BME280;5866;49.094;11.900;2024-01-25T10:37:05;97386.34;;;7.21;100.00
11621;BME280;5866;49.094;11.900;2024-01-25T10:39:34;97390.25;;;7.40;100.00
11621;BME280;5866;49.094;11.900;2024-01-25T10:42:03;97381.38;;;7.41;100.00
11621;BME280;5866;49.094;11.900;2024-01-25T10:44:32;97394.34;;;7.44;100.00
11621;BME280;5866;49.094;11.900;2024-01-25T10:47:01;97391.53;;;7.58;100.00
11621;BME280;5866;49.094;11.900;2024-01-25T10:49:29;97388.03;;;7.22;100.00
11621;BME280;5866;49.094;11.900;2024-01-25T10:51:58;97385.41;;;7.22;100.00
11621;BME280;5866;49.094;11.900;2024-01-25T10:54:26;97387.13;;;7.46;100.00
11621;BME280;5866;49.094;11.900;2024-01-25T10:56:54;97393.19;;;8.16;100.00
11621;BME280;5866;49.094;11.900;2024-01-25T10:59:23;97376.66;;;7.68;97.35
11621;BME280;5866;49.094;11.900;2024-01-25T11:01:54;97379.06;;;7.60;100.00
11621;BME280;5866;49.094;11.900;2024-01-25T11:04:22;97369.16;;;7.51;100.00
11621;BME280;5866;49.094;11.900;2024-01-25T11:06:51;97360.53;;;7.49;96.92
11621;BME280;5866;49.094;11.900;2024-01-25T11:09:20;97369.63;;;7.45;99.28
11621;BME280;5866;49.094;11.900;2024-01-25T11:11:48;97367.16;;;7.65;100.00
11621;BME280;5866;49.094;11.900;2024-01-25T11:14:16;97366.59;;;7.84;100.00
11621;BME280;5866;49.094;11.900;2024-01-25T11:16:45;97357.25;;;7.91;95.65
11621;BME280;5866;49.094;11.900;2024-01-25T11:19:17;97364.16;;;7.59;99.00
11621;BME280;5866;49.094;11.900;2024-01-25T11:21:46;97327.41;;;7.45;98.38
11621;BME280;5866;49.094;11.900;2024-01-25T11:24:16;97359.53;;;7.39;100.00
11621;BME280;5866;49.094;11.900;2024-01-25T11:26:43;97364.19;;;7.70;99.07
11621;BME280;5866;49.094;11.900;2024-01-25T11:29:13;97358.22;;;7.90;96.55
11621;BME280;5866;49.094;11.900;2024-01-25T11:31:42;97356.81;;;8.08;92.79
11621;BME280;5866;49.094;11.900;2024-01-25T11:34:12;97352.00;;;8.13;94.04
11621;BME280;5866;49.094;11.900;2024-01-25T11:36:41;97353.16;;;7.76;91.96
11621;BME280;5866;49.094;11.900;2024-01-25T11:39:09;97360.13;;;7.77;94.81
11621;BME280;5866;49.094;11.900;2024-01-25T11:41:38;97360.16;;;8.21;91.29
11621;BME280;5866;49.094;11.900;2024-01-25T11:44:06;97360.25;;;8.09;90.99
11621;BME280;5866;49.094;11.900;2024-01-25T11:46:33;97360.88;;;8.12;91.45
11621;BME280;5866;49.094;11.900;2024-01-25T11:49:04;97368.75;;;7.68;91.82
11621;BME280;5866;49.094;11.900;2024-01-25T11:51:35;97365.16;;;7.80;94.58
11621;BME280;5866;49.094;11.900;2024-01-25T11:54:02;97389.34;;;7.97;92.52
11621;BME280;5866;49.094;11.900;2024-01-25T11:56:37;97375.25;;;7.86;93.75
11621;BME280;5866;49.094;11.900;2024-01-25T11:59:07;97369.66;;;8.01;91.10
11621;BME280;5866;49.094;11.900;2024-01-25T12:01:35;97361.47;;;7.93;90.16
11621;BME280;5866;49.094;11.900;2024-01-25T12:04:04;97361.41;;;7.71;89.00
11621;BME280;5866;49.094;11.900;2024-01-25T12:06:32;97352.31;;;7.75;88.66
11621;BME280;5866;49.094;11.900;2024-01-25T12:09:09;97347.97;;;7.63;87.97
11621;BME280;5866;49.094;11.900;2024-01-25T12:11:38;97355.06;;;7.74;89.73
11621;BME280;5866;49.094;11.900;2024-01-25T12:14:07;97345.44;;;7.62;88.29
11621;BME280;5866;49.094;11.900;2024-01-25T12:16:35;97358.63;;;8.30;90.16
11621;BME280;5866;49.094;11.900;2024-01-25T12:19:05;97349.13;;;8.49;85.42
11621;BME280;5866;49.094;11.900;2024-01-25T12:21:33;97342.75;;;8.30;84.83
11621;BME280;5866;49.094;11.900;2024-01-25T12:24:02;97343.69;;;8.07;87.25
11621;BME280;5866;49.094;11.900;2024-01-25T12:26:33;97339.50;;;8.04;84.44
11621;BME280;5866;49.094;11.900;2024-01-25T12:29:01;97339.41;;;8.28;84.15
11621;BME280;5866;49.094;11.900;2024-01-25T12:31:29;97340.50;;;8.25;83.17
11621;BME280;5866;49.094;11.900;2024-01-25T12:33:58;97346.84;;;8.45;82.51
11621;BME280;5866;49.094;11.900;2024-01-25T12:36:26;97332.53;;;8.03;82.94
11621;BME280;5866;49.094;11.900;2024-01-25T12:38:54;97341.28;;;7.92;84.62
11621;BME280;5866;49.094;11.900;2024-01-25T12:41:22;97336.41;;;8.43;83.32
11621;BME280;5866;49.094;11.900;2024-01-25T12:43:51;97329.69;;;8.50;80.13
11621;BME280;5866;49.094;11.900;2024-01-25T12:46:19;97337.81;;;8.14;81.42
11621;BME280;5866;49.094;11.900;2024-01-25T12:48:54;97336.84;;;8.48;79.88
11621;BME280;5866;49.094;11.900;2024-01-25T12:51:24;97334.00;;;8.40;78.03
11621;BME280;5866;49.094;11.900;2024-01-25T12:53:52;97321.97;;;8.36;79.14
11621;BME280;5866;49.094;11.900;2024-01-25T12:56:20;97327.50;;;8.00;81.93
11621;BME280;5866;49.094;11.900;2024-01-25T12:58:48;97320.16;;;8.03;83.81
11621;BME280;5866;49.094;11.900;2024-01-25T13:01:19;97325.34;;;8.16;81.56
11621;BME280;5866;49.094;11.900;2024-01-25T13:03:47;97316.69;;;8.14;79.91
11621;BME280;5866;49.094;11.900;2024-01-25T13:06:15;97315.25;;;8.10;84.34
11621;BME280;5866;49.094;11.900;2024-01-25T13:08:43;97311.25;;;8.04;86.22